createdAt,value
2017-05-05T00:00:52.305Z,1022.06
2017-05-05T00:02:01.518Z,1022.01
2017-05-05T00:03:10.505Z,1021.99
2017-05-05T00:04:19.714Z,1022.01
2017-05-05T00:05:28.925Z,1022
2017-05-05T00:06:38.138Z,1021.95
2017-05-05T00:07:47.354Z,1021.96
2017-05-05T00:08:56.948Z,1022.01
2017-05-05T00:10:06.484Z,1022
2017-05-05T00:11:15.367Z,1022.05
2017-05-05T00:12:24.904Z,1022
2017-05-05T00:13:34.115Z,1022.07
2017-05-05T00:14:43.578Z,1021.99
2017-05-05T00:15:52.461Z,1022.01
2017-05-05T00:17:01.350Z,1022.02
2017-05-05T00:18:10.563Z,1022
2017-05-05T00:19:19.448Z,1022.03
2017-05-05T00:20:28.815Z,1022.01
2017-05-05T00:21:37.698Z,1022.01
2017-05-05T00:22:46.584Z,1022.07
2017-05-05T00:23:55.466Z,1022.05
2017-05-05T00:25:04.679Z,1022.02
2017-05-05T00:26:13.717Z,1022.06
2017-05-05T00:27:23.254Z,1022.05
2017-05-05T00:28:32.464Z,1022.03
2017-05-05T00:29:42.037Z,1021.96
2017-05-05T00:30:51.894Z,1022
2017-05-05T00:32:01.785Z,1022.13
2017-05-05T00:33:10.672Z,1022.01
2017-05-05T00:34:20.214Z,1021.97
2017-05-05T00:35:29.751Z,1021.96
2017-05-05T00:36:39.288Z,1021.98
2017-05-05T00:37:48.646Z,1021.94
2017-05-05T00:38:57.534Z,1021.98
2017-05-05T00:40:06.748Z,1022
2017-05-05T00:41:15.633Z,1022.03
2017-05-05T00:42:24.843Z,1022
2017-05-05T00:43:33.731Z,1021.98
2017-05-05T00:44:43.270Z,1021.93
2017-05-05T00:45:53.132Z,1021.92
2017-05-05T00:47:02.022Z,1021.93
2017-05-05T00:48:11.557Z,1021.89
2017-05-05T00:49:21.392Z,1021.92
2017-05-05T00:50:30.929Z,1021.89
2017-05-05T00:51:40.147Z,1021.88
2017-05-05T00:52:49.679Z,1021.89
2017-05-05T00:53:58.890Z,1021.89
2017-05-05T00:55:08.427Z,1021.92
2017-05-05T00:56:17.315Z,1021.89
2017-05-05T00:57:26.197Z,1021.92
2017-05-05T00:58:35.083Z,1021.89
2017-05-05T00:59:43.983Z,1021.91
2017-05-05T01:00:54.044Z,1021.82
2017-05-05T01:02:02.940Z,1021.81
2017-05-05T01:03:12.471Z,1021.79
2017-05-05T01:04:21.687Z,1021.9
2017-05-05T01:05:30.892Z,1021.8
2017-05-05T01:06:40.103Z,1021.93
2017-05-05T01:07:48.992Z,1021.84
2017-05-05T01:08:58.536Z,1021.81
2017-05-05T01:10:07.751Z,1021.84
2017-05-05T01:11:16.634Z,1021.85
2017-05-05T01:12:26.003Z,1021.84
2017-05-05T01:13:35.539Z,1021.88
2017-05-05T01:14:44.436Z,1021.87
2017-05-05T01:15:53.969Z,1021.85
2017-05-05T01:17:03.503Z,1021.94
2017-05-05T01:18:12.768Z,1021.84
2017-05-05T01:19:21.651Z,1021.86
2017-05-05T01:20:30.861Z,1021.85
2017-05-05T01:21:39.749Z,1021.84
2017-05-05T01:22:49.611Z,1021.85
2017-05-05T01:23:58.647Z,1021.9
2017-05-05T01:25:07.857Z,1021.89
2017-05-05T01:26:16.744Z,1021.9
2017-05-05T01:27:25.632Z,1021.84
2017-05-05T01:28:34.517Z,1021.86
2017-05-05T01:29:43.653Z,1021.81
2017-05-05T01:30:52.865Z,1021.83
2017-05-05T01:32:01.759Z,1021.81
2017-05-05T01:33:10.969Z,1021.81
2017-05-05T01:34:20.507Z,1021.8
2017-05-05T01:35:30.350Z,1021.8
2017-05-05T01:36:39.239Z,1021.8
2017-05-05T01:37:48.449Z,1021.82
2017-05-05T01:38:57.982Z,1021.82
2017-05-05T01:40:07.193Z,1021.79
2017-05-05T01:41:16.130Z,1021.8
2017-05-05T01:42:25.989Z,1021.82
2017-05-05T01:43:35.199Z,1021.8
2017-05-05T01:44:44.735Z,1021.85
2017-05-05T01:45:53.952Z,1021.82
2017-05-05T01:47:03.309Z,1021.82
2017-05-05T01:48:12.224Z,1021.85
2017-05-05T01:49:21.764Z,1021.88
2017-05-05T01:50:30.979Z,1021.86
2017-05-05T01:51:40.185Z,1021.79
2017-05-05T01:52:49.170Z,1021.85
2017-05-05T01:53:58.387Z,1021.81
2017-05-05T01:55:07.278Z,1021.81
2017-05-05T01:56:16.168Z,1021.77
2017-05-05T01:57:25.380Z,1021.81
2017-05-05T01:58:34.897Z,1021.79
2017-05-05T01:59:44.758Z,1021.83
2017-05-05T02:00:54.629Z,1021.79
2017-05-05T02:02:03.514Z,1021.8
2017-05-05T02:03:12.725Z,1021.81
2017-05-05T02:04:22.089Z,1021.79
2017-05-05T02:05:31.300Z,1021.77
2017-05-05T02:06:40.841Z,1021.75
2017-05-05T02:07:49.754Z,1021.76
2017-05-05T02:08:58.971Z,1021.76
2017-05-05T02:10:08.567Z,1021.79
2017-05-05T02:11:18.101Z,1021.81
2017-05-05T02:12:27.635Z,1021.81
2017-05-05T02:13:36.852Z,1021.77
2017-05-05T02:14:46.392Z,1021.81
2017-05-05T02:15:56.077Z,1021.84
2017-05-05T02:17:04.965Z,1021.83
2017-05-05T02:18:13.855Z,1021.84
2017-05-05T02:19:23.066Z,1021.83
2017-05-05T02:20:32.272Z,1021.81
2017-05-05T02:21:41.258Z,1021.83
2017-05-05T02:22:50.467Z,1021.86
2017-05-05T02:23:59.999Z,1021.81
2017-05-05T02:25:09.536Z,1021.8
2017-05-05T02:26:18.419Z,1021.81
2017-05-05T02:27:27.559Z,1021.79
2017-05-05T02:28:36.778Z,1021.81
2017-05-05T02:29:45.993Z,1021.78
2017-05-05T02:30:54.878Z,1021.83
2017-05-05T02:32:04.087Z,1021.84
2017-05-05T02:33:13.123Z,1021.79
2017-05-05T02:34:22.340Z,1021.81
2017-05-05T02:35:31.231Z,1021.81
2017-05-05T02:36:40.445Z,1021.83
2017-05-05T02:37:49.334Z,1021.81
2017-05-05T02:38:58.370Z,1021.81
2017-05-05T02:40:07.578Z,1021.84
2017-05-05T02:41:16.463Z,1021.88
2017-05-05T02:42:25.347Z,1021.86
2017-05-05T02:43:34.242Z,1021.85
2017-05-05T02:44:44.089Z,1021.79
2017-05-05T02:45:53.304Z,1021.82
2017-05-05T02:47:02.196Z,1021.77
2017-05-05T02:48:11.407Z,1021.78
2017-05-05T02:49:20.291Z,1021.77
2017-05-05T02:50:29.506Z,1021.77
2017-05-05T02:51:38.393Z,1021.75
2017-05-05T02:52:47.927Z,1021.76
2017-05-05T02:53:57.150Z,1021.74
2017-05-05T02:55:06.697Z,1021.69
2017-05-05T02:56:15.582Z,1021.7
2017-05-05T02:57:24.790Z,1021.7
2017-05-05T02:58:34.007Z,1021.66
2017-05-05T02:59:43.550Z,1021.65
2017-05-05T03:00:53.091Z,1021.62
2017-05-05T03:02:02.128Z,1021.62
2017-05-05T03:03:11.338Z,1021.58
2017-05-05T03:04:20.877Z,1021.65
2017-05-05T03:05:30.091Z,1021.63
2017-05-05T03:06:38.980Z,1021.6
2017-05-05T03:07:47.966Z,1021.57
2017-05-05T03:08:56.854Z,1021.59
2017-05-05T03:10:05.741Z,1021.59
2017-05-05T03:11:14.953Z,1021.59
2017-05-05T03:12:24.164Z,1021.59
2017-05-05T03:13:33.428Z,1021.53
2017-05-05T03:14:42.639Z,1021.59
2017-05-05T03:15:52.181Z,1021.52
2017-05-05T03:17:01.065Z,1021.51
2017-05-05T03:18:10.276Z,1021.55
2017-05-05T03:19:19.821Z,1021.52
2017-05-05T03:20:30.013Z,1021.52
2017-05-05T03:21:38.897Z,1021.51
2017-05-05T03:22:48.110Z,1021.54
2017-05-05T03:23:57.004Z,1021.57
2017-05-05T03:25:06.219Z,1021.52
2017-05-05T03:26:15.110Z,1021.57
2017-05-05T03:27:23.995Z,1021.56
2017-05-05T03:28:33.206Z,1021.56
2017-05-05T03:29:42.417Z,1021.55
2017-05-05T03:30:52.214Z,1021.55
2017-05-05T03:32:01.100Z,1021.56
2017-05-05T03:33:10.334Z,1021.56
2017-05-05T03:34:19.543Z,1021.53
2017-05-05T03:35:28.757Z,1021.56
2017-05-05T03:36:38.046Z,1021.6
2017-05-05T03:37:47.266Z,1021.58
2017-05-05T03:38:56.801Z,1021.55
2017-05-05T03:40:06.010Z,1021.56
2017-05-05T03:41:14.896Z,1021.57
2017-05-05T03:42:24.256Z,1021.56
2017-05-05T03:43:33.142Z,1021.59
2017-05-05T03:44:42.358Z,1021.52
2017-05-05T03:45:51.245Z,1021.53
2017-05-05T03:47:00.130Z,1021.54
2017-05-05T03:48:09.315Z,1021.52
2017-05-05T03:49:18.525Z,1021.54
2017-05-05T03:50:27.739Z,1021.48
2017-05-05T03:51:36.625Z,1021.53
2017-05-05T03:52:45.534Z,1021.56
2017-05-05T03:53:56.021Z,1021.55
2017-05-05T03:55:05.231Z,1021.6
2017-05-05T03:56:14.120Z,1021.52
2017-05-05T03:57:23.658Z,1021.56
2017-05-05T03:58:32.544Z,1021.56
2017-05-05T03:59:42.233Z,1021.56
2017-05-05T04:00:51.444Z,1021.51
2017-05-05T04:02:00.330Z,1021.54
2017-05-05T04:03:09.544Z,1021.52
2017-05-05T04:04:19.081Z,1021.56
2017-05-05T04:05:28.443Z,1021.54
2017-05-05T04:06:37.331Z,1021.55
2017-05-05T04:07:46.548Z,1021.51
2017-05-05T04:08:55.439Z,1021.54
2017-05-05T04:10:04.652Z,1021.51
2017-05-05T04:11:13.641Z,1021.53
2017-05-05T04:12:23.178Z,1021.52
2017-05-05T04:13:32.396Z,1021.55
2017-05-05T04:14:41.613Z,1021.54
2017-05-05T04:15:51.150Z,1021.54
2017-05-05T04:17:00.562Z,1021.53
2017-05-05T04:18:09.777Z,1021.6
2017-05-05T04:19:18.668Z,1021.55
2017-05-05T04:20:28.527Z,1021.58
2017-05-05T04:21:37.739Z,1021.53
2017-05-05T04:22:46.950Z,1021.53
2017-05-05T04:23:56.161Z,1021.57
2017-05-05T04:25:06.023Z,1021.52
2017-05-05T04:26:14.908Z,1021.51
2017-05-05T04:27:24.122Z,1021.56
2017-05-05T04:28:33.495Z,1021.53
2017-05-05T04:29:42.707Z,1021.54
2017-05-05T04:30:51.917Z,1021.55
2017-05-05T04:32:01.125Z,1021.54
2017-05-05T04:33:10.007Z,1021.55
2017-05-05T04:34:18.988Z,1021.58
2017-05-05T04:35:28.851Z,1021.57
2017-05-05T04:36:38.058Z,1021.55
2017-05-05T04:37:46.946Z,1021.57
2017-05-05T04:38:57.136Z,1021.56
2017-05-05T04:40:06.824Z,1021.55
2017-05-05T04:41:15.712Z,1021.6
2017-05-05T04:42:24.600Z,1021.55
2017-05-05T04:43:33.816Z,1021.58
2017-05-05T04:44:43.029Z,1021.64
2017-05-05T04:45:52.389Z,1021.61
2017-05-05T04:47:01.600Z,1021.63
2017-05-05T04:48:10.813Z,1021.61
2017-05-05T04:49:20.030Z,1021.63
2017-05-05T04:50:29.571Z,1021.63
2017-05-05T04:51:39.163Z,1021.65
2017-05-05T04:52:48.050Z,1021.66
2017-05-05T04:53:57.261Z,1021.65
2017-05-05T04:55:06.150Z,1021.63
2017-05-05T04:56:16.009Z,1021.63
2017-05-05T04:57:25.643Z,1021.65
2017-05-05T04:58:34.864Z,1021.67
2017-05-05T04:59:44.123Z,1021.68
2017-05-05T05:00:53.006Z,1021.66
2017-05-05T05:02:02.543Z,1021.66
2017-05-05T05:03:11.957Z,1021.69
2017-05-05T05:04:21.850Z,1021.69
2017-05-05T05:05:31.064Z,1021.67
2017-05-05T05:06:40.275Z,1021.7
2017-05-05T05:07:49.487Z,1021.68
2017-05-05T05:08:58.574Z,1021.69
2017-05-05T05:10:08.114Z,1021.72
2017-05-05T05:11:17.008Z,1021.76
2017-05-05T05:12:25.897Z,1021.69
2017-05-05T05:13:34.786Z,1021.73
2017-05-05T05:14:44.526Z,1021.71
2017-05-05T05:15:53.424Z,1021.73
2017-05-05T05:17:02.312Z,1021.75
2017-05-05T05:18:11.205Z,1021.77
2017-05-05T05:19:20.094Z,1021.73
2017-05-05T05:20:29.949Z,1021.75
2017-05-05T05:21:39.167Z,1021.73
2017-05-05T05:22:48.384Z,1021.8
2017-05-05T05:23:57.922Z,1021.8
2017-05-05T05:25:07.147Z,1021.79
2017-05-05T05:26:16.367Z,1021.8
2017-05-05T05:27:25.900Z,1021.83
2017-05-05T05:28:35.444Z,1021.85
2017-05-05T05:29:44.984Z,1021.88
2017-05-05T05:30:54.201Z,1021.87
2017-05-05T05:32:03.090Z,1021.86
2017-05-05T05:33:11.987Z,1021.87
2017-05-05T05:34:21.538Z,1021.87
2017-05-05T05:35:30.431Z,1021.8
2017-05-05T05:36:39.322Z,1021.9
2017-05-05T05:37:48.540Z,1021.82
2017-05-05T05:38:58.085Z,1021.82
2017-05-05T05:40:06.973Z,1021.81
2017-05-05T05:41:16.191Z,1021.83
2017-05-05T05:42:25.079Z,1021.76
2017-05-05T05:43:33.971Z,1021.83
2017-05-05T05:44:42.858Z,1021.78
2017-05-05T05:45:52.082Z,1021.84
2017-05-05T05:47:00.998Z,1021.79
2017-05-05T05:48:09.887Z,1021.81
2017-05-05T05:49:19.428Z,1021.81
2017-05-05T05:50:28.675Z,1021.83
2017-05-05T05:51:37.938Z,1021.8
2017-05-05T05:52:47.481Z,1021.85
2017-05-05T05:53:56.371Z,1021.84
2017-05-05T05:55:05.269Z,1021.83
2017-05-05T05:56:14.807Z,1021.86
2017-05-05T05:57:23.745Z,1021.86
2017-05-05T05:58:32.631Z,1021.93
2017-05-05T05:59:42.182Z,1021.9
2017-05-05T06:00:51.073Z,1021.93
2017-05-05T06:02:00.283Z,1021.85
2017-05-05T06:03:09.273Z,1021.89
2017-05-05T06:04:18.808Z,1021.84
2017-05-05T06:05:27.700Z,1021.89
2017-05-05T06:06:36.920Z,1021.88
2017-05-05T06:07:45.808Z,1021.89
2017-05-05T06:08:55.023Z,1021.86
2017-05-05T06:10:04.561Z,1021.87
2017-05-05T06:11:13.820Z,1021.89
2017-05-05T06:12:22.711Z,1021.89
2017-05-05T06:13:31.954Z,1021.92
2017-05-05T06:14:42.165Z,1021.91
2017-05-05T06:15:51.056Z,1021.96
2017-05-05T06:17:00.291Z,1021.97
2017-05-05T06:18:09.502Z,1021.99
2017-05-05T06:19:19.063Z,1022.06
2017-05-05T06:20:28.055Z,1022.05
2017-05-05T06:21:36.944Z,1022.02
2017-05-05T06:22:45.833Z,1022.07
2017-05-05T06:23:54.720Z,1022.06
2017-05-05T06:25:03.612Z,1022.03
2017-05-05T06:26:12.661Z,1022.08
2017-05-05T06:27:22.204Z,1022.08
2017-05-05T06:28:31.124Z,1022.08
2017-05-05T06:29:40.664Z,1022.08
2017-05-05T06:30:49.881Z,1022.08
2017-05-05T06:31:58.877Z,1022.08
2017-05-05T06:33:07.794Z,1022.04
2017-05-05T06:34:17.009Z,1022.04
2017-05-05T06:35:26.545Z,1022.08
2017-05-05T06:36:36.084Z,1022.04
2017-05-05T06:37:45.121Z,1022.01
2017-05-05T06:38:54.011Z,1022
2017-05-05T06:40:03.604Z,1021.94
2017-05-05T06:41:12.495Z,1021.95
2017-05-05T06:42:21.712Z,1021.95
2017-05-05T06:43:30.752Z,1021.98
2017-05-05T06:44:39.969Z,1022.03
2017-05-05T06:45:49.185Z,1022.04
2017-05-05T06:46:58.399Z,1022.02
2017-05-05T06:48:07.301Z,1022.03
2017-05-05T06:49:16.567Z,1022.02
2017-05-05T06:50:25.455Z,1022.02
2017-05-05T06:51:34.669Z,1021.98
2017-05-05T06:52:43.561Z,1021.96
2017-05-05T06:53:52.772Z,1022
2017-05-05T06:55:02.117Z,1022
2017-05-05T06:56:11.011Z,1021.98
2017-05-05T06:57:19.900Z,1021.98
2017-05-05T06:58:29.438Z,1022.02
2017-05-05T06:59:38.656Z,1022.01
2017-05-05T07:00:47.949Z,1022
2017-05-05T07:01:57.173Z,1022.07
2017-05-05T07:03:06.072Z,1022.05
2017-05-05T07:04:15.283Z,1022.13
2017-05-05T07:05:24.503Z,1022.04
2017-05-05T07:06:33.696Z,1022.11
2017-05-05T07:07:42.909Z,1022.09
2017-05-05T07:08:51.801Z,1022.06
2017-05-05T07:10:01.015Z,1022.1
2017-05-05T07:11:10.255Z,1022.11
2017-05-05T07:12:19.294Z,1022.08
2017-05-05T07:13:28.328Z,1022.1
2017-05-05T07:14:38.082Z,1022.11
2017-05-05T07:15:46.988Z,1022.08
2017-05-05T07:16:55.884Z,1022.08
2017-05-05T07:18:05.483Z,1022.04
2017-05-05T07:19:14.373Z,1022.07
2017-05-05T07:20:23.260Z,1022.08
2017-05-05T07:21:32.148Z,1022.11
2017-05-05T07:22:41.364Z,1022.11
2017-05-05T07:23:50.302Z,1022.09
2017-05-05T07:24:59.862Z,1022.1
2017-05-05T07:26:09.734Z,1022.09
2017-05-05T07:27:19.302Z,1022.12
2017-05-05T07:28:28.520Z,1022.09
2017-05-05T07:29:37.574Z,1022.14
2017-05-05T07:30:46.471Z,1022.16
2017-05-05T07:31:55.379Z,1022.19
2017-05-05T07:33:04.279Z,1022.19
2017-05-05T07:34:13.174Z,1022.16
2017-05-05T07:35:22.387Z,1022.13
2017-05-05T07:36:31.279Z,1022.14
2017-05-05T07:37:40.821Z,1022.11
2017-05-05T07:38:50.039Z,1022.09
2017-05-05T07:39:59.257Z,1022.06
2017-05-05T07:41:08.249Z,1022.03
2017-05-05T07:42:17.486Z,1022.09
2017-05-05T07:43:26.379Z,1022.03
2017-05-05T07:44:35.930Z,1022.01
2017-05-05T07:45:45.146Z,1022.08
2017-05-05T07:46:54.187Z,1022.04
2017-05-05T07:48:03.073Z,1022.07
2017-05-05T07:49:12.296Z,1022
2017-05-05T07:50:21.209Z,1022.01
2017-05-05T07:51:30.101Z,1022.03
2017-05-05T07:52:39.465Z,1022.08
2017-05-05T07:53:49.330Z,1022.1
2017-05-05T07:54:58.884Z,1022.06
2017-05-05T07:56:08.098Z,1022.09
2017-05-05T07:57:16.989Z,1022.1
2017-05-05T07:58:25.987Z,1022.11
2017-05-05T07:59:35.203Z,1022.09
2017-05-05T08:00:44.095Z,1022.09
2017-05-05T08:01:52.984Z,1022.05
2017-05-05T08:03:02.211Z,1022.08
2017-05-05T08:04:11.480Z,1022.09
2017-05-05T08:05:20.695Z,1022.04
2017-05-05T08:06:29.913Z,1022.08
2017-05-05T08:07:38.811Z,1022.07
2017-05-05T08:08:48.036Z,1022.06
2017-05-05T08:09:57.407Z,1022.08
2017-05-05T08:11:06.301Z,1022.07
2017-05-05T08:12:15.204Z,1022.07
2017-05-05T08:13:24.093Z,1022.07
2017-05-05T08:14:32.988Z,1022.12
2017-05-05T08:15:42.355Z,1022.11
2017-05-05T08:16:51.248Z,1022.07
2017-05-05T08:18:00.467Z,1022.08
2017-05-05T08:19:09.360Z,1022.08
2017-05-05T08:20:18.258Z,1022.05
2017-05-05T08:21:27.472Z,1022.05
2017-05-05T08:22:36.683Z,1022.04
2017-05-05T08:23:46.222Z,1022.02
2017-05-05T08:24:55.445Z,1022.05
2017-05-05T08:26:04.662Z,1022.08
2017-05-05T08:27:14.035Z,1022.09
2017-05-05T08:28:22.928Z,1022.05
2017-05-05T08:29:32.496Z,1022.04
2017-05-05T08:30:41.727Z,1022.07
2017-05-05T08:31:50.625Z,1022.1
2017-05-05T08:33:00.004Z,1022.03
2017-05-05T08:34:10.456Z,1022.04
2017-05-05T08:35:19.353Z,1022.03
2017-05-05T08:36:28.576Z,1022.04
2017-05-05T08:37:37.789Z,1022.01
2017-05-05T08:38:47.590Z,1022.04
2017-05-05T08:39:56.482Z,1022
2017-05-05T08:41:05.375Z,1021.97
2017-05-05T08:42:14.594Z,1022
2017-05-05T08:43:23.812Z,1021.96
2017-05-05T08:44:33.287Z,1021.99
2017-05-05T08:45:42.178Z,1021.94
2017-05-05T08:46:51.071Z,1021.92
2017-05-05T08:47:59.961Z,1021.97
2017-05-05T08:49:08.856Z,1021.96
2017-05-05T08:50:18.708Z,1021.98
2017-05-05T08:51:27.930Z,1022.02
2017-05-05T08:52:36.836Z,1021.99
2017-05-05T08:53:46.056Z,1021.99
2017-05-05T08:54:55.269Z,1022.02
2017-05-05T08:56:04.366Z,1021.95
2017-05-05T08:57:13.258Z,1022.02
2017-05-05T08:58:22.152Z,1022.03
2017-05-05T08:59:31.698Z,1022
2017-05-05T09:00:40.914Z,1022.02
2017-05-05T09:01:49.857Z,1022.03
2017-05-05T09:02:58.758Z,1022.02
2017-05-05T09:04:07.980Z,1022.01
2017-05-05T09:05:17.201Z,1022.05
2017-05-05T09:06:26.432Z,1022.07
2017-05-05T09:07:35.527Z,1022.08
2017-05-05T09:08:44.439Z,1022.1
2017-05-05T09:09:53.986Z,1022.1
2017-05-05T09:11:03.862Z,1022.11
2017-05-05T09:12:12.758Z,1022.12
2017-05-05T09:13:21.700Z,1022.09
2017-05-05T09:14:30.922Z,1022.11
2017-05-05T09:15:40.143Z,1022.06
2017-05-05T09:16:49.035Z,1022.11
2017-05-05T09:17:57.929Z,1022.04
2017-05-05T09:19:07.145Z,1022.14
2017-05-05T09:20:16.365Z,1022.12
2017-05-05T09:21:25.908Z,1022.16
2017-05-05T09:22:35.128Z,1022.1
2017-05-05T09:23:44.020Z,1022.09
2017-05-05T09:24:53.061Z,1022.13
2017-05-05T09:26:02.955Z,1022.12
2017-05-05T09:27:11.846Z,1022.09
2017-05-05T09:28:21.389Z,1022.11
2017-05-05T09:29:30.281Z,1022.16
2017-05-05T09:30:40.126Z,1022.17
2017-05-05T09:31:49.350Z,1022.14
2017-05-05T09:32:58.568Z,1022.15
2017-05-05T09:34:07.784Z,1022.13
2017-05-05T09:35:17.002Z,1022.12
2017-05-05T09:36:26.594Z,1022.1
2017-05-05T09:37:36.465Z,1022.11
2017-05-05T09:38:45.683Z,1022.09
2017-05-05T09:39:54.574Z,1022.08
2017-05-05T09:41:03.791Z,1022.11
2017-05-05T09:42:12.834Z,1022.09
2017-05-05T09:43:22.386Z,1022.14
2017-05-05T09:44:31.273Z,1022.13
2017-05-05T09:45:40.814Z,1022.11
2017-05-05T09:46:50.029Z,1022.14
2017-05-05T09:47:59.303Z,1022.1
2017-05-05T09:49:08.520Z,1022.14
2017-05-05T09:50:17.745Z,1022.12
2017-05-05T09:51:26.962Z,1022.1
2017-05-05T09:52:36.184Z,1022.14
2017-05-05T09:53:46.076Z,1022.15
2017-05-05T09:54:55.300Z,1022.17
2017-05-05T09:56:04.516Z,1022.13
2017-05-05T09:57:13.407Z,1022.14
2017-05-05T09:58:22.301Z,1022.15
2017-05-05T09:59:31.241Z,1022.12
2017-05-05T10:00:40.463Z,1022.11
2017-05-05T10:01:49.352Z,1022.15
2017-05-05T10:02:58.567Z,1022.13
2017-05-05T10:04:07.779Z,1022.15
2017-05-05T10:05:16.820Z,1022.13
2017-05-05T10:06:25.711Z,1022.13
2017-05-05T10:07:34.609Z,1022.17
2017-05-05T10:08:43.735Z,1022.16
2017-05-05T10:09:52.957Z,1022.17
2017-05-05T10:11:02.877Z,1022.14
2017-05-05T10:12:11.766Z,1022.19
2017-05-05T10:13:20.984Z,1022.13
2017-05-05T10:14:29.875Z,1022.1
2017-05-05T10:15:38.768Z,1022.18
2017-05-05T10:16:47.710Z,1022.08
2017-05-05T10:17:56.931Z,1022.13
2017-05-05T10:19:05.824Z,1022.14
2017-05-05T10:20:15.039Z,1022.13
2017-05-05T10:21:23.932Z,1022.14
2017-05-05T10:22:33.097Z,1022.18
2017-05-05T10:23:42.311Z,1022.14
2017-05-05T10:24:51.218Z,1022.17
2017-05-05T10:26:00.111Z,1022.14
2017-05-05T10:27:09.334Z,1022.13
2017-05-05T10:28:18.926Z,1022.16
2017-05-05T10:29:28.469Z,1022.16
2017-05-05T10:30:37.361Z,1022.15
2017-05-05T10:31:46.260Z,1022.2
2017-05-05T10:32:55.479Z,1022.14
2017-05-05T10:34:04.944Z,1022.15
2017-05-05T10:35:14.164Z,1022.15
2017-05-05T10:36:23.705Z,1022.17
2017-05-05T10:37:32.592Z,1022.13
2017-05-05T10:38:41.485Z,1022.16
2017-05-05T10:39:50.858Z,1022.18
2017-05-05T10:41:00.403Z,1022.17
2017-05-05T10:42:09.299Z,1022.15
2017-05-05T10:43:18.512Z,1022.15
2017-05-05T10:44:27.731Z,1022.15
2017-05-05T10:45:36.626Z,1022.14
2017-05-05T10:46:45.521Z,1022.17
2017-05-05T10:47:54.412Z,1022.19
2017-05-05T10:49:03.629Z,1022.18
2017-05-05T10:50:12.847Z,1022.15
2017-05-05T10:51:22.121Z,1022.17
2017-05-05T10:52:31.660Z,1022.18
2017-05-05T10:53:40.874Z,1022.19
2017-05-05T10:54:50.417Z,1022.17
2017-05-05T10:55:59.307Z,1022.21
2017-05-05T10:57:08.296Z,1022.21
2017-05-05T10:58:17.190Z,1022.16
2017-05-05T10:59:26.418Z,1022.19
2017-05-05T11:00:35.305Z,1022.16
2017-05-05T11:01:44.524Z,1022.2
2017-05-05T11:02:53.473Z,1022.19
2017-05-05T11:04:02.367Z,1022.18
2017-05-05T11:05:11.582Z,1022.17
2017-05-05T11:06:20.521Z,1022.21
2017-05-05T11:07:29.416Z,1022.23
2017-05-05T11:08:38.459Z,1022.23
2017-05-05T11:09:47.697Z,1022.18
2017-05-05T11:10:56.911Z,1022.22
2017-05-05T11:12:05.798Z,1022.2
2017-05-05T11:13:14.691Z,1022.2
2017-05-05T11:14:23.968Z,1022.24
2017-05-05T11:15:33.185Z,1022.18
2017-05-05T11:16:42.077Z,1022.16
2017-05-05T11:17:50.977Z,1022.17
2017-05-05T11:18:59.869Z,1022.16
2017-05-05T11:20:09.134Z,1022.16
2017-05-05T11:21:18.352Z,1022.2
2017-05-05T11:22:27.246Z,1022.26
2017-05-05T11:23:36.141Z,1022.21
2017-05-05T11:24:45.035Z,1022.2
2017-05-05T11:25:54.679Z,1022.19
2017-05-05T11:27:03.900Z,1022.23
2017-05-05T11:28:12.797Z,1022.26
2017-05-05T11:29:22.017Z,1022.28
2017-05-05T11:30:30.927Z,1022.21
2017-05-05T11:31:40.189Z,1022.26
2017-05-05T11:32:49.084Z,1022.23
2017-05-05T11:33:57.980Z,1022.25
2017-05-05T11:35:07.190Z,1022.26
2017-05-05T11:36:16.749Z,1022.22
2017-05-05T11:37:25.791Z,1022.25
2017-05-05T11:38:34.678Z,1022.24
2017-05-05T11:39:43.900Z,1022.27
2017-05-05T11:40:52.798Z,1022.29
2017-05-05T11:42:02.014Z,1022.27
2017-05-05T11:43:11.017Z,1022.3
2017-05-05T11:44:20.561Z,1022.29
2017-05-05T11:45:29.781Z,1022.34
2017-05-05T11:46:38.675Z,1022.3
2017-05-05T11:47:47.590Z,1022.29
2017-05-05T11:48:57.517Z,1022.31
2017-05-05T11:50:07.065Z,1022.28
2017-05-05T11:51:15.956Z,1022.35
2017-05-05T11:52:24.847Z,1022.29
2017-05-05T11:53:33.738Z,1022.35
2017-05-05T11:54:42.793Z,1022.33
2017-05-05T11:55:51.685Z,1022.3
2017-05-05T11:57:00.577Z,1022.29
2017-05-05T11:58:09.490Z,1022.29
2017-05-05T11:59:18.707Z,1022.32
2017-05-05T12:00:28.036Z,1022.3
2017-05-05T12:01:36.953Z,1022.3
2017-05-05T12:02:45.854Z,1022.31
2017-05-05T12:03:54.813Z,1022.31
2017-05-05T12:05:04.092Z,1022.29
2017-05-05T12:06:13.512Z,1022.35
2017-05-05T12:07:22.421Z,1022.3
2017-05-05T12:08:31.314Z,1022.27
2017-05-05T12:09:40.208Z,1022.27
2017-05-05T12:10:49.765Z,1022.29
2017-05-05T12:11:58.735Z,1022.26
2017-05-05T12:13:08.300Z,1022.29
2017-05-05T12:14:17.223Z,1022.29
2017-05-05T12:15:26.121Z,1022.25
2017-05-05T12:16:35.671Z,1022.25
2017-05-05T12:17:44.726Z,1022.24
2017-05-05T12:18:53.954Z,1022.24
2017-05-05T12:20:03.176Z,1022.22
2017-05-05T12:21:12.091Z,1022.19
2017-05-05T12:22:21.312Z,1022.22
2017-05-05T12:23:30.687Z,1022.2
2017-05-05T12:24:40.051Z,1022.17
2017-05-05T12:25:48.944Z,1022.17
2017-05-05T12:26:58.161Z,1022.24
2017-05-05T12:28:07.381Z,1022.19
2017-05-05T12:29:16.453Z,1022.23
2017-05-05T12:30:25.673Z,1022.22
2017-05-05T12:31:34.634Z,1022.24
2017-05-05T12:32:43.524Z,1022.24
2017-05-05T12:33:52.826Z,1022.18
2017-05-05T12:35:02.116Z,1022.21
2017-05-05T12:36:11.030Z,1022.21
2017-05-05T12:37:19.929Z,1022.17
2017-05-05T12:38:29.164Z,1022.18
2017-05-05T12:39:38.063Z,1022.18
2017-05-05T12:40:46.955Z,1022.14
2017-05-05T12:41:55.864Z,1022.14
2017-05-05T12:43:05.102Z,1022.1
2017-05-05T12:44:14.030Z,1022.17
2017-05-05T12:45:23.270Z,1022.18
2017-05-05T12:46:32.334Z,1022.18
2017-05-05T12:47:41.353Z,1022.19
2017-05-05T12:48:50.284Z,1022.18
2017-05-05T12:49:59.528Z,1022.21
2017-05-05T12:51:08.426Z,1022.19
2017-05-05T12:52:17.454Z,1022.14
2017-05-05T12:53:27.005Z,1022.14
2017-05-05T12:54:35.926Z,1022.17
2017-05-05T12:55:45.143Z,1022.17
2017-05-05T12:56:54.037Z,1022.13
2017-05-05T12:58:03.418Z,1022.14
2017-05-05T12:59:12.663Z,1022.14
2017-05-05T13:00:21.568Z,1022.15
2017-05-05T13:01:30.465Z,1022.14
2017-05-05T13:02:39.691Z,1022.15
2017-05-05T13:03:48.657Z,1022.16
2017-05-05T13:04:57.904Z,1022.19
2017-05-05T13:06:06.798Z,1022.15
2017-05-05T13:07:16.044Z,1022.17
2017-05-05T13:08:25.587Z,1022.21
2017-05-05T13:09:34.951Z,1022.2
2017-05-05T13:10:43.842Z,1022.2
2017-05-05T13:11:53.057Z,1022.21
2017-05-05T13:13:01.946Z,1022.19
2017-05-05T13:14:10.836Z,1022.19
2017-05-05T13:15:20.126Z,1022.18
2017-05-05T13:16:29.341Z,1022.19
2017-05-05T13:17:38.559Z,1022.17
2017-05-05T13:18:47.453Z,1022.19
2017-05-05T13:19:56.670Z,1022.21
2017-05-05T13:21:05.714Z,1022.21
2017-05-05T13:22:14.603Z,1022.19
2017-05-05T13:23:23.835Z,1022.21
2017-05-05T13:24:32.752Z,1022.24
2017-05-05T13:25:42.360Z,1022.22
2017-05-05T13:26:51.728Z,1022.21
2017-05-05T13:28:00.944Z,1022.22
2017-05-05T13:29:10.160Z,1022.22
2017-05-05T13:30:19.049Z,1022.2
2017-05-05T13:31:27.943Z,1022.26
2017-05-05T13:32:36.837Z,1022.23
2017-05-05T13:33:46.074Z,1022.22
2017-05-05T13:34:54.977Z,1022.25
2017-05-05T13:36:04.234Z,1022.23
2017-05-05T13:37:13.128Z,1022.25
2017-05-05T13:38:22.171Z,1022.23
2017-05-05T13:39:31.394Z,1022.23
2017-05-05T13:40:40.615Z,1022.25
2017-05-05T13:41:50.203Z,1022.24
2017-05-05T13:42:59.097Z,1022.24
2017-05-05T13:44:08.355Z,1022.23
2017-05-05T13:45:17.250Z,1022.22
2017-05-05T13:46:26.146Z,1022.19
2017-05-05T13:47:35.363Z,1022.2
2017-05-05T13:48:44.583Z,1022.2
2017-05-05T13:49:53.645Z,1022.16
2017-05-05T13:51:02.544Z,1022.16
2017-05-05T13:52:11.770Z,1022.16
2017-05-05T13:53:20.983Z,1022.17
2017-05-05T13:54:30.852Z,1022.14
2017-05-05T13:55:40.923Z,1022.12
2017-05-05T13:56:50.144Z,1022.14
2017-05-05T13:57:59.069Z,1022.09
2017-05-05T13:59:07.966Z,1022.1
2017-05-05T14:00:17.181Z,1022.09